createdAt,value
2019-01-09T09:40:31.417Z,18.30
2019-01-09T09:45:27.011Z,20.87
2019-01-09T09:50:22.963Z,20.83
2019-01-09T09:55:18.585Z,18.30
2019-01-09T10:05:19.396Z,26.80
2019-01-09T10:10:15.306Z,33.83
2019-01-09T10:15:11.919Z,28.27
2019-01-09T10:30:15.876Z,32.07
2019-01-09T10:35:11.647Z,35.20
2019-01-09T10:40:08.497Z,32.63
2019-01-09T10:45:06.012Z,21.50
2019-01-09T10:50:01.949Z,25.03
2019-01-09T10:54:57.632Z,15.80
2019-01-09T10:59:53.213Z,13.47
2019-01-09T11:04:48.878Z,3.73
2019-01-09T11:09:44.534Z,1.97
2019-01-09T11:14:40.205Z,4.20
2019-01-09T11:19:35.826Z,2.33
2019-01-09T11:24:31.451Z,3.00
2019-01-09T11:29:27.199Z,2.77
2019-01-09T11:34:22.836Z,1.27
2019-01-09T11:39:18.517Z,1.80
2019-01-09T11:44:14.087Z,1.17
2019-01-09T11:49:09.738Z,1.23
2019-01-09T11:54:05.525Z,1.67
2019-01-09T11:59:01.102Z,1.00
2019-01-09T12:03:56.681Z,1.87
2019-01-09T12:08:52.327Z,3.30
2019-01-09T12:13:47.909Z,1.97
2019-01-09T12:18:43.615Z,4.10
2019-01-09T12:23:39.213Z,1.77
2019-01-09T12:28:34.899Z,1.63
2019-01-09T12:33:30.596Z,1.43
2019-01-09T12:38:26.245Z,1.30
2019-01-09T12:43:21.915Z,2.27
2019-01-09T12:48:17.502Z,1.53
2019-01-09T12:53:13.066Z,3.07
2019-01-09T12:58:08.814Z,1.60
2019-01-09T13:03:04.601Z,1.47
2019-01-09T13:08:00.637Z,1.60
2019-01-09T13:12:56.319Z,1.40
2019-01-09T13:17:51.998Z,3.77
2019-01-09T13:22:47.658Z,2.27
2019-01-09T13:27:43.344Z,1.70
2019-01-09T13:32:39.017Z,3.47
2019-01-09T13:37:34.677Z,3.93
2019-01-09T13:42:30.343Z,4.77
2019-01-09T13:47:25.994Z,4.33
2019-01-09T13:52:21.659Z,1.77
2019-01-09T13:57:17.313Z,3.40
2019-01-09T14:02:12.994Z,7.63
2019-01-09T14:07:10.485Z,3.57
2019-01-09T14:12:06.356Z,3.53
2019-01-09T14:17:01.954Z,8.13
2019-01-09T14:21:57.613Z,6.93
2019-01-09T14:26:53.274Z,4.77
2019-01-09T14:31:48.942Z,4.60
2019-01-09T14:36:44.575Z,5.93
2019-01-09T14:41:40.204Z,3.30
2019-01-09T14:46:35.858Z,9.37
2019-01-09T14:51:31.529Z,17.10
2019-01-09T14:56:27.237Z,15.13
2019-01-09T15:01:22.917Z,14.83
2019-01-09T15:06:19.027Z,21.63
2019-01-09T15:11:14.726Z,20.57
2019-01-09T15:16:10.394Z,23.13
2019-01-09T15:21:06.083Z,20.13
2019-01-09T15:26:02.493Z,13.43
2019-01-09T15:30:59.250Z,13.77
2019-01-09T15:35:55.389Z,16.20
2019-01-09T15:40:51.088Z,15.13
2019-01-09T15:45:46.787Z,14.90
2019-01-09T15:50:42.609Z,16.00
2019-01-09T15:55:38.354Z,26.43
2019-01-09T16:00:39.537Z,17.70
2019-01-09T16:05:36.481Z,16.03
2019-01-09T16:10:32.130Z,16.47
2019-01-09T16:15:27.909Z,19.33
2019-01-09T16:20:23.698Z,25.50
2019-01-09T16:25:19.518Z,28.63
2019-01-09T16:30:21.926Z,19.80
2019-01-09T16:35:17.501Z,29.87
2019-01-09T16:40:13.419Z,24.20
2019-01-09T16:45:10.386Z,34.33
2019-01-09T16:50:07.102Z,31.83
2019-01-09T16:55:02.734Z,21.43
2019-01-09T16:59:58.674Z,15.83
2019-01-09T17:04:54.358Z,20.40
2019-01-09T17:09:50.422Z,83.40
2019-01-09T17:14:46.101Z,63.53
